International Virtual Aviation Organisation

Russian Federation and Kazakhstan MCD

 

Карточка аэропорта USTR

Внимание!
Информация на этой странице в стадии наполнения.
Если вы не увидели какой-то информации, или заметили неточность - пожалуйста сообщите нам!
Спасибо!
Команда RU-STAFF
Название аэропортаРощино
Название аэропорта (англ.)Roshschino
Превышение378 ft. (115.2 m.)
Координаты57°10.098', 65°19.002'
Высота перехода700m
Эшелон переходаFL040
Коды ответчика5101-5137
Зона ОрВДТюмень РПИ (USTV)
Данные METARUSTR 281100Z 32003MPS 4000 -SN BR FEW008 BKN025 M12/M13 Q1038 R30/450160 R21/450160 TEMPO 0500 -SN FZFG VV003 RMK QFE769/1025
Проноз погоды (TAF)USTR 280752Z 2809/2909 36004MPS 6000 BKN016 TEMPO 2809/2812 VRB01MPS 1000 -SN BR VV003 TEMPO 2812/2903 3100 -SN BR OVC011 BECMG 2821/2823 34004MPS BECMG 2907/2908 VRB01MPS
NOTAMshow/hide NOTAM
AWOS   TABLE

Информация о ВПП

ВПП Длина ВПП (м.) Покрытие Курс ВПП Частота ILS
033003Асфальтобетон34108.3
213003Асфальтобетон214110.7
122704Асфальтобетон121 
302704Асфальтобетон301 

Диспетчерские позиции

Позывной Наименование органа УВД Частота
USTR_GNDТюмень-Руление119.000
USTR_TWRТюмень-Старт118.200
USTR_APPТюмень-Подход126.100



Спутниковое изображение